Time;durP1;ratioP1;P1;durP2;ratioP2;P2;SDS_P1;SDS_P2;PMS_P1;PMS_P2;Temp;Humidity;BMP_temperature;BMP_pressure;BME280_temperature;BME280_humidity;BME280_pressure;Samples;Min_cycle;Max_cycle;Signal;HPM_P1;HPM_P2
2021/08/23 00:01:09;;;;;;;15.63;11.70;;;;;;;;;;5014994;28;20065;-67
2021/08/23 00:03:54;;;;;;;15.73;12.25;;;;;;;;;;5014209;28;20069;-67
2021/08/23 00:06:40;;;;;;;15.13;12.50;;;;;;;;;;5014295;28;20498;-66
2021/08/23 00:09:25;;;;;;;13.68;11.88;;;;;;;;;;5014272;28;20431;-67
2021/08/23 00:12:11;;;;;;;13.40;11.43;;;;;;;;;;5014612;28;20106;-67
2021/08/23 00:14:56;;;;;;;13.98;11.38;;;;;;;;;;5014563;28;20493;-66
2021/08/23 00:17:42;;;;;;;16.02;11.30;;;;;;;;;;5014301;28;20052;-68
2021/08/23 00:20:42;;;;;;;14.27;10.65;;;;;;;;;;5014509;28;20045;-67
2021/08/23 00:23:28;;;;;;;11.68;9.68;;;;;;;;;;5014464;28;20052;-65
2021/08/23 00:26:13;;;;;;;14.57;10.52;;;;;;;;;;5014110;28;20046;-67
2021/08/23 00:28:59;;;;;;;14.73;11.45;;;;;;;;;;5020423;28;20061;-67
2021/08/23 00:31:44;;;;;;;16.70;12.25;;;;;;;;;;5034008;28;20042;-67
2021/08/23 00:34:29;;;;;;;12.95;10.27;;;;;;;;;;5033978;28;20041;-67
2021/08/23 00:37:15;;;;;;;18.88;12.40;;;;;;;;;;5034486;28;20041;-67
2021/08/23 00:40:00;;;;;;;12.90;10.65;;;;;;;;;;5035281;28;20037;-67
2021/08/23 00:42:46;;;;;;;13.07;10.00;;;;;;;;;;5034132;28;20041;-67
2021/08/23 00:45:31;;;;;;;16.02;11.70;;;;;;;;;;5033396;28;20156;-67
2021/08/23 00:48:16;;;;;;;13.95;10.85;;;;;;;;;;5033348;28;20046;-67
2021/08/23 00:51:02;;;;;;;14.35;10.40;;;;;;;;;;5032760;28;20411;-67
2021/08/23 00:53:48;;;;;;;27.95;13.75;;;;;;;;;;5032193;28;20443;-67
2021/08/23 00:56:33;;;;;;;15.27;11.63;;;;;;;;;;5032093;28;20487;-67
2021/08/23 00:59:20;;;;;;;16.55;11.30;;;;;;;;;;5023379;28;20131;-67
2021/08/23 01:02:12;;;;;;;15.57;11.43;;;;;;;;;;5032635;28;20050;-68
2021/08/23 01:05:00;;;;;;;13.88;9.85;;;;;;;;;;5031949;28;20051;-67
2021/08/23 01:08:05;;;;;;;19.25;11.40;;;;;;;;;;5031833;28;20389;-67
2021/08/23 01:10:52;;;;;;;15.00;10.88;;;;;;;;;;5033020;28;20052;-67
2021/08/23 01:13:39;;;;;;;14.82;10.88;;;;;;;;;;5029742;28;20049;-67
2021/08/23 01:16:24;;;;;;;17.08;11.52;;;;;;;;;;5032107;28;20140;-66
2021/08/23 01:19:09;;;;;;;15.65;11.95;;;;;;;;;;5032298;28;20554;-66
2021/08/23 01:21:55;;;;;;;15.82;11.13;;;;;;;;;;5031760;28;20049;-67
2021/08/23 01:24:40;;;;;;;15.82;10.90;;;;;;;;;;5030568;28;20123;-66
2021/08/23 01:27:25;;;;;;;16.45;9.57;;;;;;;;;;5031565;28;20096;-67
2021/08/23 01:30:11;;;;;;;12.93;10.18;;;;;;;;;;5034680;28;20091;-66
2021/08/23 01:32:56;;;;;;;11.98;9.45;;;;;;;;;;5035712;28;20052;-66
2021/08/23 01:35:41;;;;;;;15.10;10.88;;;;;;;;;;5034389;28;20046;-67
2021/08/23 01:38:26;;;;;;;14.65;9.90;;;;;;;;;;5035575;28;20076;-67
2021/08/23 01:41:11;;;;;;;17.75;10.73;;;;;;;;;;5034738;28;20046;-67
2021/08/23 01:43:56;;;;;;;14.20;9.30;;;;;;;;;;5033968;28;20064;-67
2021/08/23 01:46:42;;;;;;;17.65;10.20;;;;;;;;;;5035473;28;20048;-67
2021/08/23 01:49:27;;;;;;;13.70;9.45;;;;;;;;;;5035523;28;20076;-67
2021/08/23 01:52:13;;;;;;;13.40;10.00;;;;;;;;;;5035464;28;20503;-66
2021/08/23 01:54:58;;;;;;;14.25;8.85;;;;;;;;;;5035023;28;20519;-67
2021/08/23 01:57:44;;;;;;;12.05;9.25;;;;;;;;;;5025494;28;20049;-67
2021/08/23 02:00:29;;;;;;;13.20;9.18;;;;;;;;;;5015503;28;20050;-66
2021/08/23 02:03:14;;;;;;;12.20;8.75;;;;;;;;;;5015408;28;20501;-66
2021/08/23 02:06:00;;;;;;;17.02;8.98;;;;;;;;;;5014227;28;20046;-67
2021/08/23 02:08:45;;;;;;;12.55;8.93;;;;;;;;;;5015240;28;20057;-66
2021/08/23 02:11:31;;;;;;;12.82;8.45;;;;;;;;;;5014684;28;20108;-66
2021/08/23 02:14:16;;;;;;;11.05;8.05;;;;;;;;;;5021660;28;20060;-68
2021/08/23 02:17:01;;;;;;;10.27;8.20;;;;;;;;;;5034719;28;20471;-67
2021/08/23 02:19:47;;;;;;;13.65;7.70;;;;;;;;;;5034805;28;20049;-66
2021/08/23 02:22:32;;;;;;;10.48;7.80;;;;;;;;;;5034800;28;20034;-67
2021/08/23 02:25:22;;;;;;;13.80;7.75;;;;;;;;;;5034520;28;20510;-68
2021/08/23 02:28:07;;;;;;;10.35;7.13;;;;;;;;;;5017555;28;20049;-66
2021/08/23 02:30:52;;;;;;;11.88;7.63;;;;;;;;;;5014811;28;20050;-67
2021/08/23 02:33:38;;;;;;;13.57;8.15;;;;;;;;;;5014692;28;20049;-66
2021/08/23 02:36:23;;;;;;;15.73;8.05;;;;;;;;;;5013843;28;20112;-67
2021/08/23 02:39:09;;;;;;;12.32;6.95;;;;;;;;;;5014073;28;20616;-67
2021/08/23 02:41:54;;;;;;;11.38;8.10;;;;;;;;;;5014883;28;20054;-67
2021/08/23 02:44:40;;;;;;;9.70;7.20;;;;;;;;;;5014337;28;20078;-67
2021/08/23 02:47:25;;;;;;;18.17;7.40;;;;;;;;;;5014391;28;20488;-66
2021/08/23 02:50:10;;;;;;;10.55;6.80;;;;;;;;;;5013507;28;20060;-66
2021/08/23 02:52:56;;;;;;;13.60;7.50;;;;;;;;;;5018505;28;20052;-66
2021/08/23 02:55:42;;;;;;;11.32;6.78;;;;;;;;;;5033819;28;20052;-66
2021/08/23 02:58:27;;;;;;;9.00;6.78;;;;;;;;;;5034183;28;20037;-66
2021/08/23 03:01:13;;;;;;;10.00;6.68;;;;;;;;;;5034139;28;20496;-67
2021/08/23 03:03:58;;;;;;;10.45;6.35;;;;;;;;;;5033745;28;20151;-67
2021/08/23 03:06:44;;;;;;;9.65;6.35;;;;;;;;;;5033183;28;20054;-66
2021/08/23 03:09:30;;;;;;;8.93;6.13;;;;;;;;;;5012899;28;20053;-67
2021/08/23 03:12:15;;;;;;;7.50;5.60;;;;;;;;;;5013955;28;20562;-67
2021/08/23 03:15:00;;;;;;;10.80;5.90;;;;;;;;;;5013660;28;20052;-66
2021/08/23 03:17:46;;;;;;;11.68;6.60;;;;;;;;;;5013713;28;20504;-66
2021/08/23 03:20:31;;;;;;;12.55;5.93;;;;;;;;;;5013950;28;20069;-67
2021/08/23 03:23:17;;;;;;;10.07;5.88;;;;;;;;;;5013492;28;20050;-67
2021/08/23 03:26:02;;;;;;;10.10;4.95;;;;;;;;;;5013888;28;20050;-66
2021/08/23 03:28:47;;;;;;;11.93;6.25;;;;;;;;;;5013759;28;20060;-67
2021/08/23 03:31:33;;;;;;;8.80;4.85;;;;;;;;;;5013714;28;20107;-67
2021/08/23 03:34:18;;;;;;;9.70;4.97;;;;;;;;;;5013428;28;20157;-66
2021/08/23 03:37:04;;;;;;;8.80;5.88;;;;;;;;;;5013021;28;20053;-66
2021/08/23 03:39:50;;;;;;;10.40;5.72;;;;;;;;;;5013622;28;20046;-66
2021/08/23 03:42:35;;;;;;;11.32;5.50;;;;;;;;;;5013581;28;20041;-67
2021/08/23 03:45:20;;;;;;;10.02;6.10;;;;;;;;;;5014130;28;20124;-67
2021/08/23 03:48:06;;;;;;;7.00;5.35;;;;;;;;;;5014109;28;20046;-67
2021/08/23 03:50:51;;;;;;;10.63;6.13;;;;;;;;;;5013555;28;20038;-66
2021/08/23 03:53:36;;;;;;;13.45;5.47;;;;;;;;;;5032050;28;20041;-67
2021/08/23 03:56:22;;;;;;;9.30;5.47;;;;;;;;;;5032717;28;20045;-67
2021/08/23 03:59:07;;;;;;;10.57;5.53;;;;;;;;;;5033285;28;20050;-67
2021/08/23 04:01:53;;;;;;;10.00;5.90;;;;;;;;;;5033414;28;20061;-66
2021/08/23 04:04:38;;;;;;;11.00;6.20;;;;;;;;;;5032722;28;20037;-67
2021/08/23 04:07:23;;;;;;;14.57;6.50;;;;;;;;;;5031637;28;20171;-67
2021/08/23 04:10:10;;;;;;;9.57;5.18;;;;;;;;;;5033299;28;20056;-67
2021/08/23 04:12:55;;;;;;;13.00;7.40;;;;;;;;;;5033369;28;20139;-67
2021/08/23 04:15:41;;;;;;;14.02;7.57;;;;;;;;;;5032647;28;20048;-67
2021/08/23 04:18:26;;;;;;;10.23;7.38;;;;;;;;;;5032849;28;20049;-67
2021/08/23 04:21:11;;;;;;;15.68;8.20;;;;;;;;;;5031792;28;20034;-67
2021/08/23 04:23:57;;;;;;;13.57;9.00;;;;;;;;;;5032754;28;20045;-67
2021/08/23 04:26:43;;;;;;;16.48;7.88;;;;;;;;;;5032920;28;20064;-67
2021/08/23 04:29:28;;;;;;;9.43;6.82;;;;;;;;;;5032962;28;20411;-67
2021/08/23 04:32:13;;;;;;;9.70;7.75;;;;;;;;;;5032296;28;20132;-67
2021/08/23 04:34:58;;;;;;;12.52;8.45;;;;;;;;;;5032575;28;20087;-67
2021/08/23 04:37:44;;;;;;;15.75;9.32;;;;;;;;;;5013963;28;20052;-66
2021/08/23 04:40:29;;;;;;;12.50;8.23;;;;;;;;;;5013071;28;20522;-67
2021/08/23 04:43:15;;;;;;;12.75;8.50;;;;;;;;;;5013051;28;20042;-67
2021/08/23 04:46:00;;;;;;;15.48;8.35;;;;;;;;;;5012958;28;20069;-66
2021/08/23 04:48:45;;;;;;;12.00;8.70;;;;;;;;;;5012836;28;20049;-67
2021/08/23 04:51:31;;;;;;;16.30;8.95;;;;;;;;;;5012035;28;20049;-67
2021/08/23 04:54:16;;;;;;;19.08;9.68;;;;;;;;;;5025320;28;20038;-66
2021/08/23 04:57:02;;;;;;;13.88;8.85;;;;;;;;;;5012613;28;20049;-67
2021/08/23 04:59:47;;;;;;;11.95;9.32;;;;;;;;;;5021265;28;20503;-67
2021/08/23 05:02:33;;;;;;;12.73;8.52;;;;;;;;;;5031011;28;20049;-67
2021/08/23 05:05:18;;;;;;;13.93;9.25;;;;;;;;;;5032197;28;20514;-67
2021/08/23 05:08:04;;;;;;;16.52;8.68;;;;;;;;;;5032003;28;20096;-67
2021/08/23 05:10:49;;;;;;;12.70;8.32;;;;;;;;;;5032371;28;20103;-67
2021/08/23 05:13:35;;;;;;;14.05;8.48;;;;;;;;;;5029584;28;20046;-67
2021/08/23 05:16:21;;;;;;;15.68;8.18;;;;;;;;;;5021119;28;20052;-67
2021/08/23 05:19:07;;;;;;;15.25;7.78;;;;;;;;;;5031897;28;20076;-66
2021/08/23 05:21:52;;;;;;;10.68;7.18;;;;;;;;;;5032033;28;20050;-66
2021/08/23 05:24:37;;;;;;;10.35;6.88;;;;;;;;;;5031674;28;20062;-66
2021/08/23 05:27:23;;;;;;;13.25;7.88;;;;;;;;;;5031735;28;20125;-67
2021/08/23 05:30:08;;;;;;;13.95;7.32;;;;;;;;;;5030525;28;20042;-66
2021/08/23 05:32:54;;;;;;;7.88;6.07;;;;;;;;;;5031766;28;20412;-66
2021/08/23 05:35:39;;;;;;;10.98;6.15;;;;;;;;;;5031415;28;20052;-67
2021/08/23 05:38:24;;;;;;;9.65;5.90;;;;;;;;;;5028485;28;20041;-66
2021/08/23 05:41:10;;;;;;;8.20;5.70;;;;;;;;;;5022692;28;20042;-66
2021/08/23 05:43:55;;;;;;;10.48;5.70;;;;;;;;;;5020721;28;20052;-68
2021/08/23 05:46:40;;;;;;;8.02;4.70;;;;;;;;;;5022206;28;20187;-66
2021/08/23 05:49:26;;;;;;;9.90;4.53;;;;;;;;;;5027700;28;20136;-67
2021/08/23 05:52:11;;;;;;;6.97;4.90;;;;;;;;;;5031560;28;20061;-68
2021/08/23 05:54:57;;;;;;;11.25;5.03;;;;;;;;;;5031139;28;20056;-66
2021/08/23 05:57:43;;;;;;;9.63;4.70;;;;;;;;;;5030085;28;20405;-68
2021/08/23 06:00:28;;;;;;;9.60;4.43;;;;;;;;;;5011883;28;20077;-66
2021/08/23 06:03:13;;;;;;;10.05;4.50;;;;;;;;;;5011693;28;20097;-66
2021/08/23 06:06:03;;;;;;;9.60;4.82;;;;;;;;;;5011830;28;20412;-66
2021/08/23 06:08:48;;;;;;;5.38;4.32;;;;;;;;;;5010701;28;20511;-66
2021/08/23 06:11:34;;;;;;;8.77;4.30;;;;;;;;;;5011659;28;20078;-66
2021/08/23 06:14:20;;;;;;;7.65;4.10;;;;;;;;;;5013293;28;20046;-66
2021/08/23 06:17:05;;;;;;;6.00;3.42;;;;;;;;;;5014949;28;20287;-66
2021/08/23 06:19:51;;;;;;;6.93;3.45;;;;;;;;;;5014999;28;20042;-66
2021/08/23 06:22:37;;;;;;;4.57;3.53;;;;;;;;;;5015156;28;20143;-66
2021/08/23 06:25:23;;;;;;;13.43;3.97;;;;;;;;;;5014773;28;20404;-66
2021/08/23 06:28:08;;;;;;;8.60;3.60;;;;;;;;;;5021854;28;20045;-67
2021/08/23 06:30:53;;;;;;;7.13;3.13;;;;;;;;;;5030770;28;20041;-66
2021/08/23 06:33:40;;;;;;;8.25;4.15;;;;;;;;;;5034360;28;20052;-68
2021/08/23 06:36:25;;;;;;;8.27;3.88;;;;;;;;;;5034328;28;20042;-66
2021/08/23 06:39:11;;;;;;;9.75;3.55;;;;;;;;;;5034308;28;20053;-66
2021/08/23 06:41:57;;;;;;;7.22;3.95;;;;;;;;;;5034314;28;20045;-66
2021/08/23 06:44:42;;;;;;;7.28;4.07;;;;;;;;;;5031997;28;20042;-68
2021/08/23 06:47:28;;;;;;;5.55;3.30;;;;;;;;;;5014648;28;20412;-66
2021/08/23 06:50:13;;;;;;;12.65;3.30;;;;;;;;;;5014458;28;20528;-73
2021/08/23 06:52:59;;;;;;;6.60;2.90;;;;;;;;;;5014138;28;20404;-65
2021/08/23 06:55:44;;;;;;;7.60;3.28;;;;;;;;;;5013893;28;20049;-64
2021/08/23 06:58:41;;;;;;;7.68;3.40;;;;;;;;;;5020795;28;20476;-65
2021/08/23 07:01:29;;;;;;;7.25;3.20;;;;;;;;;;5028634;28;20049;-65
2021/08/23 07:04:14;;;;;;;5.85;3.38;;;;;;;;;;5033913;28;20057;-66
2021/08/23 07:07:02;;;;;;;9.73;3.45;;;;;;;;;;5033993;28;20049;-66
2021/08/23 07:09:47;;;;;;;5.00;2.88;;;;;;;;;;5033931;28;20053;-66
2021/08/23 07:12:33;;;;;;;5.07;2.78;;;;;;;;;;5033769;28;20496;-65
2021/08/23 07:15:20;;;;;;;6.47;2.63;;;;;;;;;;5026775;28;20048;-65
2021/08/23 07:18:08;;;;;;;10.20;3.30;;;;;;;;;;5071187;23;20049;-64
2021/08/23 07:20:54;;;;;;;8.98;2.83;;;;;;;;;;5033883;28;20049;-64
2021/08/23 07:23:39;;;;;;;9.48;2.63;;;;;;;;;;5033312;28;20510;-64
2021/08/23 07:26:44;;;;;;;4.97;2.33;;;;;;;;;;5032146;28;20053;-64
2021/08/23 07:29:35;;;;;;;4.90;1.88;;;;;;;;;;5012585;28;20520;-64
2021/08/23 07:32:20;;;;;;;6.20;1.63;;;;;;;;;;5013748;28;20050;-64
2021/08/23 07:35:06;;;;;;;2.42;1.88;;;;;;;;;;5013418;28;20547;-64
2021/08/23 07:37:51;;;;;;;4.30;1.77;;;;;;;;;;5013544;28;20057;-64
2021/08/23 07:40:38;;;;;;;4.53;2.13;;;;;;;;;;5013619;28;20053;-64
2021/08/23 07:43:24;;;;;;;5.50;1.88;;;;;;;;;;5012747;28;20040;-64
2021/08/23 07:46:12;;;;;;;5.25;2.45;;;;;;;;;;5013683;28;20181;-64
2021/08/23 07:48:58;;;;;;;5.05;2.17;;;;;;;;;;5013442;28;20053;-64
2021/08/23 07:51:43;;;;;;;5.85;1.90;;;;;;;;;;5013411;28;20057;-63
2021/08/23 07:54:29;;;;;;;5.45;1.80;;;;;;;;;;5013058;28;20517;-63
2021/08/23 07:57:15;;;;;;;4.88;2.08;;;;;;;;;;5013148;28;20053;-64
2021/08/23 08:00:02;;;;;;;3.00;1.58;;;;;;;;;;5011291;28;20050;-64
2021/08/23 08:02:57;;;;;;;4.53;1.85;;;;;;;;;;4993725;28;20042;-64
2021/08/23 08:05:42;;;;;;;3.00;1.30;;;;;;;;;;4999346;28;20124;-64
2021/08/23 08:08:28;;;;;;;2.75;1.13;;;;;;;;;;5012917;28;20540;-64
2021/08/23 08:11:14;;;;;;;6.13;1.88;;;;;;;;;;5012957;28;20092;-70
2021/08/23 08:13:59;;;;;;;3.60;0.93;;;;;;;;;;5012674;28;20046;-72
2021/08/23 08:16:45;;;;;;;3.65;1.35;;;;;;;;;;5012359;28;20042;-72
2021/08/23 08:19:30;;;;;;;1.95;0.90;;;;;;;;;;5010461;28;20049;-72
2021/08/23 08:22:16;;;;;;;3.42;1.00;;;;;;;;;;5009980;28;20038;-71
2021/08/23 08:25:01;;;;;;;4.65;1.25;;;;;;;;;;5011488;28;20125;-72
2021/08/23 08:27:47;;;;;;;3.53;1.13;;;;;;;;;;5009849;28;20117;-71
2021/08/23 08:30:33;;;;;;;2.13;0.60;;;;;;;;;;5010648;28;20488;-72
2021/08/23 08:33:18;;;;;;;4.97;1.10;;;;;;;;;;5011313;28;20045;-71
2021/08/23 08:36:04;;;;;;;2.42;0.90;;;;;;;;;;5011875;28;20124;-71
2021/08/23 08:38:49;;;;;;;3.58;1.08;;;;;;;;;;5012483;28;20046;-72
2021/08/23 08:41:35;;;;;;;2.38;1.38;;;;;;;;;;5012628;28;20060;-72
2021/08/23 08:44:20;;;;;;;4.78;1.42;;;;;;;;;;4997626;28;20046;-72
2021/08/23 08:47:05;;;;;;;4.00;1.30;;;;;;;;;;5011483;28;20053;-71
2021/08/23 08:49:50;;;;;;;3.00;1.02;;;;;;;;;;4996941;28;20488;-72
2021/08/23 08:52:36;;;;;;;2.13;1.08;;;;;;;;;;5010622;28;20042;-72
2021/08/23 08:55:22;;;;;;;4.50;1.65;;;;;;;;;;4997502;28;20447;-72
2021/08/23 08:58:07;;;;;;;4.32;1.65;;;;;;;;;;5012447;28;20042;-72
2021/08/23 09:00:53;;;;;;;2.42;1.15;;;;;;;;;;5011380;28;20038;-72
2021/08/23 09:03:44;;;;;;;1.77;1.13;;;;;;;;;;5011122;28;20052;-74
2021/08/23 09:06:38;;;;;;;1.92;0.93;;;;;;;;;;5011317;28;20091;-72
2021/08/23 09:09:23;;;;;;;3.78;1.73;;;;;;;;;;5011195;28;20638;-72
2021/08/23 09:12:12;;;;;;;2.15;1.35;;;;;;;;;;5012249;28;20049;-73
2021/08/23 09:14:58;;;;;;;3.38;1.00;;;;;;;;;;5010191;28;20108;-71
2021/08/23 09:17:43;;;;;;;2.35;1.30;;;;;;;;;;4992459;28;20407;-73
2021/08/23 09:20:34;;;;;;;2.05;0.98;;;;;;;;;;4991632;28;20070;-71
2021/08/23 09:23:32;;;;;;;4.57;1.92;;;;;;;;;;4992507;28;20452;-72
2021/08/23 09:26:37;;;;;;;2.78;1.02;;;;;;;;;;4980750;28;20125;-71
2021/08/23 09:29:36;;;;;;;6.32;2.75;;;;;;;;;;4992977;28;20057;-70
2021/08/23 09:32:25;;;;;;;4.75;1.13;;;;;;;;;;5011102;28;20136;-70
2021/08/23 09:35:12;;;;;;;3.47;1.10;;;;;;;;;;5011765;28;20488;-71
2021/08/23 09:37:57;;;;;;;3.45;1.17;;;;;;;;;;5011799;28;20049;-73
2021/08/23 09:40:45;;;;;;;5.50;2.17;;;;;;;;;;5012031;28;20129;-71
2021/08/23 09:43:31;;;;;;;5.88;1.23;;;;;;;;;;5011750;28;20046;-72
2021/08/23 09:46:23;;;;;;;3.20;1.50;;;;;;;;;;5002243;28;20056;-73
2021/08/23 09:49:12;;;;;;;3.30;1.13;;;;;;;;;;4994553;28;20467;-71
2021/08/23 09:51:57;;;;;;;2.83;1.15;;;;;;;;;;5012487;28;20041;-72
2021/08/23 09:54:46;;;;;;;1.80;1.27;;;;;;;;;;5015394;28;20574;-71
2021/08/23 09:57:36;;;;;;;1.73;1.08;;;;;;;;;;5007750;28;20092;-71
2021/08/23 10:00:21;;;;;;;3.83;1.27;;;;;;;;;;4995917;28;20492;-71
2021/08/23 10:03:14;;;;;;;2.30;1.20;;;;;;;;;;4995899;28;20169;-72
2021/08/23 10:05:59;;;;;;;3.67;1.10;;;;;;;;;;4994918;28;20121;-71
2021/08/23 10:08:44;;;;;;;2.80;0.77;;;;;;;;;;4995698;28;20523;-72
2021/08/23 10:11:31;;;;;;;3.08;1.33;;;;;;;;;;4995931;28;20046;-72
2021/08/23 10:14:17;;;;;;;2.28;1.30;;;;;;;;;;5015028;28;20607;-72
2021/08/23 10:17:03;;;;;;;11.73;4.65;;;;;;;;;;5014077;28;20056;-72
2021/08/23 10:19:49;;;;;;;3.50;1.40;;;;;;;;;;5011475;28;20112;-71
2021/08/23 10:22:35;;;;;;;2.95;1.00;;;;;;;;;;5014006;28;20049;-70
2021/08/23 10:25:20;;;;;;;1.42;0.73;;;;;;;;;;5013896;28;20038;-72
2021/08/23 10:28:07;;;;;;;2.70;0.70;;;;;;;;;;4998901;28;20057;-71
2021/08/23 10:30:52;;;;;;;1.98;0.90;;;;;;;;;;5014853;28;20041;-70
2021/08/23 10:33:42;;;;;;;3.38;0.85;;;;;;;;;;5014716;28;20049;-70
2021/08/23 10:36:28;;;;;;;3.40;0.95;;;;;;;;;;5014635;28;20050;-73
2021/08/23 10:39:23;;;;;;;2.03;0.77;;;;;;;;;;5013693;28;20046;-70
2021/08/23 10:42:12;;;;;;;2.28;0.80;;;;;;;;;;5012432;28;20480;-69
2021/08/23 10:45:05;;;;;;;2.78;0.80;;;;;;;;;;5013968;28;20046;-69
2021/08/23 10:47:50;;;;;;;2.03;0.82;;;;;;;;;;4998268;28;20049;-70
2021/08/23 10:50:36;;;;;;;1.55;0.70;;;;;;;;;;5014536;28;20420;-71
2021/08/23 10:53:33;;;;;;;1.75;0.75;;;;;;;;;;5014433;28;20381;-69
2021/08/23 10:56:19;;;;;;;4.03;0.85;;;;;;;;;;5013342;28;20056;-71
2021/08/23 10:59:14;;;;;;;0.90;0.63;;;;;;;;;;5014070;28;20053;-72
2021/08/23 11:02:00;;;;;;;2.28;1.10;;;;;;;;;;5014277;28;20561;-74
2021/08/23 11:04:55;;;;;;;11.80;1.92;;;;;;;;;;5013231;28;20042;-72
2021/08/23 11:07:41;;;;;;;15.90;2.17;;;;;;;;;;5011134;28;20508;-74
2021/08/23 11:10:26;;;;;;;2.30;0.90;;;;;;;;;;5012650;28;20041;-74
2021/08/23 11:13:13;;;;;;;9.75;1.38;;;;;;;;;;5011282;28;20108;-74
2021/08/23 11:16:07;;;;;;;5.53;1.50;;;;;;;;;;5013660;28;20061;-73
2021/08/23 11:18:53;;;;;;;4.20;1.25;;;;;;;;;;5013527;28;20423;-73
2021/08/23 11:21:40;;;;;;;5.03;1.23;;;;;;;;;;5012381;28;20042;-73
2021/08/23 11:24:27;;;;;;;1.70;0.88;;;;;;;;;;5011716;28;20129;-73
2021/08/23 11:27:14;;;;;;;2.13;1.05;;;;;;;;;;5011462;28;20046;-73
2021/08/23 11:29:59;;;;;;;5.55;1.08;;;;;;;;;;5012596;28;20038;-73
2021/08/23 11:32:45;;;;;;;4.38;0.95;;;;;;;;;;5011454;28;20068;-73
2021/08/23 11:35:31;;;;;;;4.03;1.00;;;;;;;;;;5012702;28;20068;-73
2021/08/23 11:38:16;;;;;;;2.03;1.25;;;;;;;;;;5012310;28;20053;-74
2021/08/23 11:41:05;;;;;;;2.83;0.80;;;;;;;;;;5010646;28;20109;-73
2021/08/23 11:43:50;;;;;;;3.30;0.95;;;;;;;;;;5013539;28;20042;-73
2021/08/23 11:46:36;;;;;;;2.03;0.80;;;;;;;;;;5012926;28;20048;-73
2021/08/23 11:49:31;;;;;;;1.70;0.80;;;;;;;;;;5010405;28;20042;-75
2021/08/23 11:52:19;;;;;;;1.88;1.30;;;;;;;;;;5005121;28;20465;-74
2021/08/23 11:55:05;;;;;;;1.65;0.80;;;;;;;;;;4993512;28;20057;-75
2021/08/23 11:57:58;;;;;;;3.22;0.80;;;;;;;;;;4993542;28;20042;-74
2021/08/23 12:00:43;;;;;;;1.50;0.60;;;;;;;;;;4993636;28;20046;-73
2021/08/23 12:03:30;;;;;;;1.88;0.60;;;;;;;;;;4992330;28;20053;-74
2021/08/23 12:06:16;;;;;;;2.78;1.30;;;;;;;;;;5006437;28;20042;-74
2021/08/23 12:09:02;;;;;;;1.98;1.17;;;;;;;;;;5012743;28;20061;-74
2021/08/23 12:11:47;;;;;;;1.17;0.65;;;;;;;;;;5011262;28;20049;-74
2021/08/23 12:14:32;;;;;;;1.50;0.70;;;;;;;;;;5011727;28;20049;-74
2021/08/23 12:17:18;;;;;;;2.53;0.73;;;;;;;;;;5012447;28;20077;-74
2021/08/23 12:20:05;;;;;;;2.15;0.65;;;;;;;;;;5011436;28;20121;-72
2021/08/23 12:22:50;;;;;;;4.47;0.93;;;;;;;;;;5012848;28;20049;-72
2021/08/23 12:25:35;;;;;;;2.85;1.10;;;;;;;;;;5012564;28;20492;-72
2021/08/23 12:28:20;;;;;;;2.60;0.75;;;;;;;;;;5012645;28;20053;-72
2021/08/23 12:31:06;;;;;;;1.17;0.73;;;;;;;;;;5011213;28;20096;-71
2021/08/23 12:33:52;;;;;;;3.95;1.00;;;;;;;;;;5003926;28;20041;-73
2021/08/23 12:36:37;;;;;;;1.63;0.80;;;;;;;;;;5007168;28;20045;-72
2021/08/23 12:39:22;;;;;;;2.10;0.80;;;;;;;;;;5008385;28;20038;-72
2021/08/23 12:42:08;;;;;;;1.55;0.60;;;;;;;;;;5010621;28;20076;-72
2021/08/23 12:44:54;;;;;;;2.22;0.80;;;;;;;;;;5010011;28;20042;-72
2021/08/23 12:47:39;;;;;;;1.60;0.80;;;;;;;;;;5008398;28;20507;-72
2021/08/23 12:50:25;;;;;;;1.67;0.90;;;;;;;;;;5009130;28;20517;-72
2021/08/23 12:53:10;;;;;;;1.17;0.70;;;;;;;;;;5008689;28;20065;-72
2021/08/23 12:55:55;;;;;;;1.95;0.80;;;;;;;;;;5010838;28;20069;-72
2021/08/23 12:58:40;;;;;;;3.33;0.85;;;;;;;;;;5017988;28;20397;-72
2021/08/23 13:01:25;;;;;;;3.85;2.25;;;;;;;;;;4976720;28;20089;-72
2021/08/23 13:04:11;;;;;;;1.20;0.80;;;;;;;;;;4977401;28;20054;-72
2021/08/23 13:06:57;;;;;;;1.27;0.68;;;;;;;;;;4996210;28;20452;-72
2021/08/23 13:09:42;;;;;;;2.00;1.13;;;;;;;;;;5009616;28;20496;-71
2021/08/23 13:12:27;;;;;;;1.35;0.50;;;;;;;;;;4996468;28;20088;-72
2021/08/23 13:15:12;;;;;;;3.65;0.95;;;;;;;;;;5010374;28;20058;-72
2021/08/23 13:17:57;;;;;;;1.75;0.63;;;;;;;;;;5010080;28;20050;-72
2021/08/23 13:20:42;;;;;;;3.28;0.75;;;;;;;;;;5011621;28;20062;-72
2021/08/23 13:23:28;;;;;;;3.20;0.80;;;;;;;;;;4998445;28;20053;-71
2021/08/23 13:26:13;;;;;;;2.72;0.70;;;;;;;;;;5014458;28;20057;-71
2021/08/23 13:28:58;;;;;;;1.40;0.50;;;;;;;;;;5014076;28;20062;-72
2021/08/23 13:31:44;;;;;;;3.75;0.95;;;;;;;;;;5000364;28;20189;-72
2021/08/23 13:34:29;;;;;;;1.13;0.60;;;;;;;;;;5013999;28;20066;-71
2021/08/23 13:37:14;;;;;;;3.30;0.82;;;;;;;;;;5014278;28;20389;-72
2021/08/23 13:39:59;;;;;;;1.58;1.00;;;;;;;;;;5014321;28;20054;-72
2021/08/23 13:42:44;;;;;;;2.78;0.70;;;;;;;;;;5014479;28;20058;-71
2021/08/23 13:45:30;;;;;;;1.40;0.65;;;;;;;;;;5013883;28;20050;-73
2021/08/23 13:48:16;;;;;;;3.42;0.60;;;;;;;;;;5000694;28;20064;-73
2021/08/23 13:51:01;;;;;;;6.75;2.00;;;;;;;;;;5012692;28;20401;-73
2021/08/23 13:53:46;;;;;;;4.13;1.10;;;;;;;;;;5013360;28;20065;-73
2021/08/23 13:56:32;;;;;;;6.75;1.55;;;;;;;;;;5013064;28;20116;-74
2021/08/23 13:59:17;;;;;;;6.68;1.40;;;;;;;;;;5013803;28;20068;-74
2021/08/23 14:02:02;;;;;;;11.00;2.58;;;;;;;;;;5013083;28;20097;-74
2021/08/23 14:04:47;;;;;;;3.88;0.95;;;;;;;;;;5013819;28;20124;-74
2021/08/23 14:07:32;;;;;;;1.70;0.55;;;;;;;;;;5014281;28;20437;-74
2021/08/23 14:10:18;;;;;;;1.20;0.68;;;;;;;;;;4999971;28;20058;-75
2021/08/23 14:13:03;;;;;;;1.13;0.70;;;;;;;;;;5013504;28;20128;-75
2021/08/23 14:15:49;;;;;;;1.45;0.65;;;;;;;;;;4998710;28;20089;-74
2021/08/23 14:18:34;;;;;;;3.85;0.90;;;;;;;;;;5014361;28;20054;-74
2021/08/23 14:21:19;;;;;;;2.53;0.85;;;;;;;;;;5013563;28;20064;-74
2021/08/23 14:24:05;;;;;;;4.28;0.75;;;;;;;;;;5013616;28;20058;-73
2021/08/23 14:26:50;;;;;;;3.28;0.80;;;;;;;;;;5013926;28;20086;-74
2021/08/23 14:29:35;;;;;;;2.08;0.70;;;;;;;;;;5012882;28;20428;-74
2021/08/23 14:32:20;;;;;;;1.70;0.50;;;;;;;;;;5013669;28;20057;-74
2021/08/23 14:35:06;;;;;;;1.70;0.73;;;;;;;;;;5012901;28;20457;-73
2021/08/23 14:37:51;;;;;;;4.72;0.93;;;;;;;;;;5012779;28;20054;-73
2021/08/23 14:40:36;;;;;;;1.67;0.73;;;;;;;;;;4999844;28;20405;-73
2021/08/23 14:43:21;;;;;;;6.32;1.08;;;;;;;;;;5013334;28;20517;-73
2021/08/23 14:46:06;;;;;;;1.23;0.50;;;;;;;;;;5012287;28;20053;-73
2021/08/23 14:48:52;;;;;;;3.38;1.10;;;;;;;;;;5013212;28;20058;-73
2021/08/23 14:51:37;;;;;;;2.22;0.90;;;;;;;;;;4999563;28;20530;-74
2021/08/23 14:54:22;;;;;;;2.70;0.80;;;;;;;;;;4998843;28;20058;-73
2021/08/23 14:57:08;;;;;;;2.90;0.60;;;;;;;;;;5012832;28;20053;-74
2021/08/23 14:59:53;;;;;;;2.45;0.75;;;;;;;;;;5010857;28;20046;-73
2021/08/23 15:02:40;;;;;;;2.42;0.80;;;;;;;;;;5012352;28;20125;-74
2021/08/23 15:05:25;;;;;;;2.03;0.90;;;;;;;;;;5012640;28;20079;-74
2021/08/23 15:08:11;;;;;;;1.52;0.65;;;;;;;;;;4999199;28;20068;-73
2021/08/23 15:10:56;;;;;;;7.45;1.92;;;;;;;;;;5012682;28;20054;-73
2021/08/23 15:13:41;;;;;;;6.80;2.20;;;;;;;;;;4996888;28;20417;-73
2021/08/23 15:16:26;;;;;;;0.82;0.57;;;;;;;;;;5005303;28;20085;-73
2021/08/23 15:19:11;;;;;;;1.08;0.60;;;;;;;;;;5012239;28;20054;-73
2021/08/23 15:21:56;;;;;;;8.75;1.80;;;;;;;;;;4998940;28;20057;-73
2021/08/23 15:24:42;;;;;;;3.63;0.88;;;;;;;;;;5012451;28;20058;-72
2021/08/23 15:27:30;;;;;;;1.75;0.90;;;;;;;;;;4998823;28;20508;-73
2021/08/23 15:30:15;;;;;;;4.25;0.65;;;;;;;;;;4997979;28;20449;-74
2021/08/23 15:33:04;;;;;;;2.33;0.70;;;;;;;;;;5013106;28;20049;-73
2021/08/23 15:35:51;;;;;;;2.30;0.60;;;;;;;;;;5012381;28;20083;-74
2021/08/23 15:38:36;;;;;;;5.10;0.70;;;;;;;;;;5011979;28;20389;-74
2021/08/23 15:41:23;;;;;;;9.38;2.03;;;;;;;;;;4997858;28;20532;-74
2021/08/23 15:44:08;;;;;;;2.97;0.60;;;;;;;;;;5010750;28;20053;-74
2021/08/23 15:46:54;;;;;;;2.25;0.70;;;;;;;;;;5010254;28;20053;-74
2021/08/23 15:49:39;;;;;;;1.45;0.70;;;;;;;;;;5011653;28;20064;-74
2021/08/23 15:52:24;;;;;;;3.75;0.50;;;;;;;;;;5012626;28;20077;-74
2021/08/23 15:55:10;;;;;;;1.58;0.80;;;;;;;;;;5011048;28;20056;-74
2021/08/23 15:57:55;;;;;;;3.28;0.70;;;;;;;;;;4997247;28;20436;-74
2021/08/23 16:00:40;;;;;;;2.00;0.90;;;;;;;;;;5011884;28;20401;-74
2021/08/23 16:03:25;;;;;;;2.67;0.80;;;;;;;;;;5011713;28;20057;-73
2021/08/23 16:06:10;;;;;;;1.45;0.73;;;;;;;;;;5010953;28;20049;-73
2021/08/23 16:08:55;;;;;;;1.83;0.90;;;;;;;;;;5012787;28;20684;-72
2021/08/23 16:11:42;;;;;;;2.25;0.80;;;;;;;;;;5011594;28;20062;-71
2021/08/23 16:14:27;;;;;;;2.70;1.08;;;;;;;;;;5011168;28;20054;-71
2021/08/23 16:17:12;;;;;;;2.58;1.17;;;;;;;;;;5011443;28;20420;-71
2021/08/23 16:19:57;;;;;;;3.67;0.60;;;;;;;;;;4996491;28;20125;-71
2021/08/23 16:22:42;;;;;;;1.77;1.02;;;;;;;;;;4997965;28;20064;-71
2021/08/23 16:25:28;;;;;;;2.67;0.70;;;;;;;;;;4997860;28;20452;-72
2021/08/23 16:28:13;;;;;;;1.90;0.70;;;;;;;;;;5012683;28;20085;-73
2021/08/23 16:30:59;;;;;;;2.88;0.70;;;;;;;;;;5011067;28;20058;-72